Time;durP1;ratioP1;P1;durP2;ratioP2;P2;SDS_P1;SDS_P2;PMS_P1;PMS_P2;Temp;Humidity;BMP_temperature;BMP_pressure;BME280_temperature;BME280_humidity;BME280_pressure;Samples;Min_cycle;Max_cycle;Signal;HPM_P1;HPM_P2
2022/12/27 00:01:20;;;;;;;354.97;151.73;;;;;;;;;;4996651;28;20230;-70
2022/12/27 00:03:46;;;;;;;425.37;180.83;;;;;;;;;;4993814;28;20667;-70
2022/12/27 00:06:17;;;;;;;316.50;141.33;;;;;;;;;;5004930;28;20694;-70
2022/12/27 00:08:46;;;;;;;442.83;190.87;;;;;;;;;;5005902;28;20217;-70
2022/12/27 00:11:17;;;;;;;331.90;145.03;;;;;;;;;;4992365;28;20235;-69
2022/12/27 00:13:47;;;;;;;508.57;220.47;;;;;;;;;;4999684;28;20207;-69
2022/12/27 00:16:17;;;;;;;318.80;140.30;;;;;;;;;;5006735;28;20679;-69
2022/12/27 00:18:45;;;;;;;337.70;148.10;;;;;;;;;;5000950;28;20835;-69
2022/12/27 00:21:15;;;;;;;375.57;160.63;;;;;;;;;;4993993;28;20228;-70
2022/12/27 00:23:43;;;;;;;363.90;157.60;;;;;;;;;;4991462;28;20208;-70
2022/12/27 00:26:13;;;;;;;461.07;192.03;;;;;;;;;;4993068;28;20356;-70
2022/12/27 00:28:39;;;;;;;336.40;145.87;;;;;;;;;;4989252;28;20810;-69
2022/12/27 00:31:05;;;;;;;461.57;194.73;;;;;;;;;;4995377;28;20185;-70
2022/12/27 00:33:32;;;;;;;378.30;161.63;;;;;;;;;;4997605;28;20243;-69
2022/12/27 00:35:59;;;;;;;547.27;225.20;;;;;;;;;;4987304;28;20728;-69
2022/12/27 00:38:26;;;;;;;444.70;188.80;;;;;;;;;;4994180;28;20682;-69
2022/12/27 00:40:52;;;;;;;437.07;180.50;;;;;;;;;;4996450;28;20220;-69
2022/12/27 00:43:18;;;;;;;289.50;132.43;;;;;;;;;;5003114;28;20275;-68
2022/12/27 00:45:45;;;;;;;296.70;136.67;;;;;;;;;;4997406;28;20570;-69
2022/12/27 00:48:14;;;;;;;399.80;175.40;;;;;;;;;;4994537;28;20613;-69
2022/12/27 00:50:44;;;;;;;342.43;146.80;;;;;;;;;;4994888;28;20217;-70
2022/12/27 00:53:11;;;;;;;437.90;183.93;;;;;;;;;;5003801;28;20215;-69
2022/12/27 00:55:41;;;;;;;377.83;155.50;;;;;;;;;;5009347;28;20947;-70
2022/12/27 00:58:07;;;;;;;297.37;130.57;;;;;;;;;;5007745;28;20276;-70
2022/12/27 01:00:33;;;;;;;430.57;171.60;;;;;;;;;;4998615;28;20314;-69
2022/12/27 01:03:11;;;;;;;407.07;177.57;;;;;;;;;;5004839;28;20469;-70
2022/12/27 01:05:37;;;;;;;424.07;175.07;;;;;;;;;;5005789;28;20215;-71
2022/12/27 01:08:07;;;;;;;268.33;124.13;;;;;;;;;;5005136;28;20327;-71
2022/12/27 01:10:39;;;;;;;500.87;197.90;;;;;;;;;;5001489;28;20188;-69
2022/12/27 01:13:06;;;;;;;299.27;132.47;;;;;;;;;;4997581;28;20184;-69
2022/12/27 01:15:35;;;;;;;455.77;195.47;;;;;;;;;;5005021;28;20429;-69
2022/12/27 01:18:01;;;;;;;403.70;173.27;;;;;;;;;;4998137;28;20216;-70
2022/12/27 01:20:27;;;;;;;340.87;147.70;;;;;;;;;;4997933;28;20213;-69
2022/12/27 01:22:54;;;;;;;421.23;180.53;;;;;;;;;;4998071;28;20626;-70
2022/12/27 01:25:20;;;;;;;348.73;154.07;;;;;;;;;;4993505;28;20258;-69
2022/12/27 01:27:48;;;;;;;460.47;195.80;;;;;;;;;;4996573;28;20279;-69
2022/12/27 01:30:14;;;;;;;441.13;180.30;;;;;;;;;;4997002;28;20219;-69
2022/12/27 01:32:43;;;;;;;530.40;222.43;;;;;;;;;;4988916;28;20258;-69
2022/12/27 01:35:12;;;;;;;353.33;148.70;;;;;;;;;;5001069;28;20540;-69
2022/12/27 01:37:41;;;;;;;501.63;209.07;;;;;;;;;;5002926;28;20185;-69
2022/12/27 01:40:08;;;;;;;350.00;150.03;;;;;;;;;;4998749;28;20610;-69
2022/12/27 01:42:52;;;;;;;331.80;145.73;;;;;;;;;;4993468;28;20330;-69
2022/12/27 01:45:20;;;;;;;281.67;127.03;;;;;;;;;;5016994;28;20627;-69
2022/12/27 01:48:06;;;;;;;421.53;173.50;;;;;;;;;;4999018;28;20208;-69
2022/12/27 01:50:32;;;;;;;457.83;191.20;;;;;;;;;;4998030;28;20295;-69
2022/12/27 01:53:13;;;;;;;356.00;157.03;;;;;;;;;;5005720;28;20224;-71
2022/12/27 01:55:39;;;;;;;356.93;160.23;;;;;;;;;;4999225;28;20291;-70
2022/12/27 01:58:18;;;;;;;318.07;138.73;;;;;;;;;;5011372;28;20691;-69
2022/12/27 02:00:48;;;;;;;345.67;155.33;;;;;;;;;;4998900;28;20643;-69
2022/12/27 02:03:17;;;;;;;412.87;175.40;;;;;;;;;;4995828;28;20212;-69
2022/12/27 02:05:43;;;;;;;328.63;141.50;;;;;;;;;;4994679;28;20738;-69
2022/12/27 02:08:18;;;;;;;421.40;172.57;;;;;;;;;;5008072;28;20232;-69
2022/12/27 02:10:44;;;;;;;299.20;135.80;;;;;;;;;;5009320;28;20175;-69
2022/12/27 02:13:11;;;;;;;298.70;127.60;;;;;;;;;;4994567;28;20192;-70
2022/12/27 02:15:38;;;;;;;296.03;126.60;;;;;;;;;;5005903;28;20315;-69
2022/12/27 02:18:07;;;;;;;328.13;145.27;;;;;;;;;;5010996;28;20208;-69
2022/12/27 02:20:40;;;;;;;408.73;174.17;;;;;;;;;;4998453;28;20268;-70
2022/12/27 02:26:26;;;;;;;418.17;169.97;;;;;;;;;;4993752;28;22415;-69
2022/12/27 02:29:11;;;;;;;514.40;208.67;;;;;;;;;;4990160;28;20220;-70
2022/12/27 02:31:42;;;;;;;553.07;235.30;;;;;;;;;;4997550;28;20208;-69
2022/12/27 02:34:15;;;;;;;515.73;218.07;;;;;;;;;;4980710;28;20189;-69
2022/12/27 02:36:43;;;;;;;341.77;146.90;;;;;;;;;;4997002;28;20668;-69
2022/12/27 02:39:14;;;;;;;557.63;221.73;;;;;;;;;;4988310;28;20243;-70
2022/12/27 02:53:06;;;;;;;496.17;199.73;;;;;;;;;;4981639;28;20755;-69
2022/12/27 02:55:41;;;;;;;320.33;133.23;;;;;;;;;;4976927;28;20332;-69
2022/12/27 02:58:33;;;;;;;493.83;208.53;;;;;;;;;;4975537;28;20215;-70
2022/12/27 03:04:21;;;;;;;410.40;159.07;;;;;;;;;;4975154;28;20978;-69
2022/12/27 03:06:52;;;;;;;433.07;182.30;;;;;;;;;;4985007;28;20278;-70
2022/12/27 03:15:53;;;;;;;463.23;195.37;;;;;;;;;;4980686;28;20254;-69
2022/12/27 03:17:50;;;;;;;358.33;148.10;;;;;;;;;;4997659;28;20243;-69
2022/12/27 03:25:49;;;;;;;572.77;228.97;;;;;;;;;;4985488;28;20557;-69
2022/12/27 03:34:03;;;;;;;610.17;251.20;;;;;;;;;;4981648;28;20346;-69
2022/12/27 03:39:30;;;;;;;548.30;224.87;;;;;;;;;;4991469;28;20248;-70
2022/12/27 03:44:47;;;;;;;582.67;246.53;;;;;;;;;;4990830;28;20272;-69
2022/12/27 03:47:25;;;;;;;410.20;169.73;;;;;;;;;;4993466;28;20312;-69
2022/12/27 03:50:00;;;;;;;474.87;198.63;;;;;;;;;;4994136;28;20559;-69
2022/12/27 03:52:40;;;;;;;584.43;249.77;;;;;;;;;;4997241;28;20635;-70
2022/12/27 03:55:10;;;;;;;542.50;225.57;;;;;;;;;;4974780;28;20220;-70
2022/12/27 03:57:36;;;;;;;539.37;228.90;;;;;;;;;;5006196;28;20221;-70
2022/12/27 04:00:05;;;;;;;557.97;239.73;;;;;;;;;;4999645;28;20830;-70
2022/12/27 04:02:31;;;;;;;506.53;210.67;;;;;;;;;;4994487;28;20312;-70
2022/12/27 04:04:57;;;;;;;578.43;239.63;;;;;;;;;;4989910;28;20220;-70
2022/12/27 04:07:24;;;;;;;564.23;231.60;;;;;;;;;;5007868;28;20188;-69
2022/12/27 04:37:57;;;;;;;442.87;187.27;;;;;;;;;;5051731;27;20605;-52
2022/12/27 04:57:06;;;;;;;631.83;282.50;;;;;;;;;;4981169;28;20987;-53
2022/12/27 05:02:17;;;;;;;499.43;214.63;;;;;;;;;;4999380;28;20273;-52
2022/12/27 05:04:43;;;;;;;593.50;261.87;;;;;;;;;;5015611;28;20204;-52
2022/12/27 05:15:26;;;;;;;524.10;223.63;;;;;;;;;;5009981;28;20561;-59
2022/12/27 05:17:52;;;;;;;574.50;246.63;;;;;;;;;;4999452;28;20246;-52
2022/12/27 05:20:18;;;;;;;577.13;250.30;;;;;;;;;;4997972;28;20299;-51
2022/12/27 05:25:37;;;;;;;537.67;216.70;;;;;;;;;;4933708;28;20198;-55
2022/12/27 05:28:04;;;;;;;582.60;232.33;;;;;;;;;;4933930;28;20228;-55
2022/12/27 05:30:32;;;;;;;750.30;298.57;;;;;;;;;;4942214;28;20250;-55
2022/12/27 05:32:58;;;;;;;627.43;242.70;;;;;;;;;;4937328;28;20226;-55
2022/12/27 05:35:24;;;;;;;674.10;270.53;;;;;;;;;;4937347;28;20210;-55
2022/12/27 05:37:50;;;;;;;627.33;248.97;;;;;;;;;;4937495;28;20247;-57
2022/12/27 05:40:16;;;;;;;587.90;230.77;;;;;;;;;;4934864;28;20252;-55
2022/12/27 05:42:42;;;;;;;559.40;221.90;;;;;;;;;;4945157;28;20473;-55
2022/12/27 05:45:09;;;;;;;687.57;272.57;;;;;;;;;;4940012;28;20221;-57
2022/12/27 05:47:35;;;;;;;615.70;243.27;;;;;;;;;;4935070;28;20237;-55
2022/12/27 05:50:01;;;;;;;617.00;238.70;;;;;;;;;;4932658;28;20226;-55
2022/12/27 05:52:29;;;;;;;671.67;266.30;;;;;;;;;;4931513;28;20209;-55
2022/12/27 05:54:55;;;;;;;686.80;270.57;;;;;;;;;;4922756;28;20259;-56
2022/12/27 06:08:16;;;;;;;578.67;241.00;;;;;;;;;;5069737;27;20618;-57
2022/12/27 06:10:43;;;;;;;613.87;268.70;;;;;;;;;;5014918;28;20186;-57
2022/12/27 06:13:09;;;;;;;573.17;243.07;;;;;;;;;;5004766;28;20208;-57
2022/12/27 06:15:36;;;;;;;556.50;230.10;;;;;;;;;;5030693;28;20211;-55
2022/12/27 06:18:02;;;;;;;454.20;188.80;;;;;;;;;;4998289;28;20684;-55
2022/12/27 06:20:28;;;;;;;517.10;211.33;;;;;;;;;;4998601;28;20302;-55
2022/12/27 06:22:54;;;;;;;552.20;231.97;;;;;;;;;;5002086;28;20231;-55
2022/12/27 06:25:20;;;;;;;626.90;265.70;;;;;;;;;;5003036;28;20211;-57
2022/12/27 06:27:47;;;;;;;540.20;226.20;;;;;;;;;;4997314;28;20219;-57
2022/12/27 06:30:14;;;;;;;594.60;247.63;;;;;;;;;;4997937;28;20311;-57
2022/12/27 06:32:40;;;;;;;523.90;208.63;;;;;;;;;;5017262;28;20208;-55
2022/12/27 06:35:06;;;;;;;582.37;236.70;;;;;;;;;;5020569;28;20306;-57
2022/12/27 06:37:32;;;;;;;523.60;204.60;;;;;;;;;;4990343;28;20215;-56
2022/12/27 06:39:58;;;;;;;551.40;231.07;;;;;;;;;;4974264;28;20216;-57
2022/12/27 06:42:24;;;;;;;580.93;237.30;;;;;;;;;;4974617;28;20209;-56
2022/12/27 06:44:50;;;;;;;601.73;246.20;;;;;;;;;;4988628;28;20674;-57
2022/12/27 06:47:16;;;;;;;643.00;271.27;;;;;;;;;;5001448;28;20315;-57
2022/12/27 06:49:42;;;;;;;554.33;227.27;;;;;;;;;;5010693;28;20701;-56
2022/12/27 06:52:08;;;;;;;573.33;236.40;;;;;;;;;;5002866;28;20676;-57
2022/12/27 06:54:34;;;;;;;659.53;270.53;;;;;;;;;;4983885;28;20252;-57
2022/12/27 06:57:00;;;;;;;663.43;270.60;;;;;;;;;;4984566;28;20398;-58
2022/12/27 06:59:26;;;;;;;615.00;251.70;;;;;;;;;;4984076;28;22070;-56
2022/12/27 07:06:03;;;;;;;815.93;353.77;;;;;;;;;;5055556;27;20658;-56
2022/12/27 07:08:29;;;;;;;611.33;261.67;;;;;;;;;;5015374;28;20206;-56
2022/12/27 07:11:00;;;;;;;714.00;299.60;;;;;;;;;;5012524;28;20672;-56
2022/12/27 07:13:26;;;;;;;718.03;303.70;;;;;;;;;;5009673;28;23676;-57
2022/12/27 07:15:52;;;;;;;668.77;291.50;;;;;;;;;;5016854;28;20285;-57
2022/12/27 07:18:18;;;;;;;545.50;229.43;;;;;;;;;;5014375;28;20264;-57
2022/12/27 07:23:02;;;;;;;554.27;245.90;;;;;;;;;;4913195;27;4854118;-73
2022/12/27 07:25:28;;;;;;;475.60;208.73;;;;;;;;;;5039225;28;20669;-71
2022/12/27 07:35:35;;;;;;;488.30;237.40;;;;;;;;;;5038339;27;20620;-57
2022/12/27 07:38:01;;;;;;;508.37;245.87;;;;;;;;;;5017518;28;20222;-57
2022/12/27 07:40:27;;;;;;;579.47;304.43;;;;;;;;;;4997573;28;20642;-57
2022/12/27 07:42:53;;;;;;;419.10;203.53;;;;;;;;;;5018392;28;20236;-59
2022/12/27 07:45:19;;;;;;;511.70;261.37;;;;;;;;;;5019185;28;20745;-58
2022/12/27 07:47:45;;;;;;;396.77;192.93;;;;;;;;;;5029418;28;20317;-58
2022/12/27 07:50:11;;;;;;;490.40;248.13;;;;;;;;;;5014167;28;20648;-55
2022/12/27 07:52:37;;;;;;;627.90;343.70;;;;;;;;;;4981721;28;21182;-55
2022/12/27 07:55:03;;;;;;;486.30;230.10;;;;;;;;;;4972023;28;20484;-55
2022/12/27 07:57:29;;;;;;;540.97;255.10;;;;;;;;;;4997037;28;20229;-56
2022/12/27 07:59:55;;;;;;;582.63;282.03;;;;;;;;;;4979710;28;22360;-56
2022/12/27 08:02:22;;;;;;;534.10;255.93;;;;;;;;;;5006037;28;20229;-57
2022/12/27 08:04:48;;;;;;;446.60;216.03;;;;;;;;;;5018926;28;20200;-57
2022/12/27 08:07:18;;;;;;;532.90;256.57;;;;;;;;;;5005721;28;20656;-57
2022/12/27 08:09:45;;;;;;;505.53;233.73;;;;;;;;;;5009875;28;20261;-56
2022/12/27 08:12:12;;;;;;;542.37;257.07;;;;;;;;;;5012734;28;20227;-55
2022/12/27 08:14:38;;;;;;;408.60;199.00;;;;;;;;;;5018552;28;20300;-55
2022/12/27 08:17:25;;;;;;;455.47;224.20;;;;;;;;;;5030511;28;20222;-55
2022/12/27 08:19:52;;;;;;;512.30;263.40;;;;;;;;;;5012679;28;20740;-55
2022/12/27 08:22:18;;;;;;;505.43;263.50;;;;;;;;;;4998031;28;20861;-56
2022/12/27 08:24:45;;;;;;;477.80;237.03;;;;;;;;;;5017154;28;20214;-56
2022/12/27 08:27:11;;;;;;;516.00;267.87;;;;;;;;;;5000268;28;20654;-56
2022/12/27 08:29:37;;;;;;;475.07;239.63;;;;;;;;;;5010683;28;21111;-56
2022/12/27 08:38:17;;;;;;;588.87;261.63;;;;;;;;;;5009005;28;20643;-57
2022/12/27 08:40:44;;;;;;;388.50;169.77;;;;;;;;;;4998752;28;20187;-57
2022/12/27 08:43:10;;;;;;;371.77;160.43;;;;;;;;;;5011989;28;20206;-57
